CYKZ

Buttonville Municipal Airport

Toronto, Ontario, Canada
METAR CYKZ 162200Z 13005KT 15SM SCT180 SCT240 02/M01 A2996 RMK AC3CI1 SLP154
Observed Flight Rules
Dec-16 @ 22:00 UTC (12 minutes ago) Visual Flight Rules
Wind Visibility Clouds
130° at 5 knots 15 miles
  • Scattered at 18,000' AGL
  • Scattered at 24,000' AGL
Temperatures Readings
Current 2°C / 36°F
Dewpoint -1°C / 30°F
Humidity 81%
Altimeter 29.96" Hg
Pressure 1015.4 hPa
Elevation 198
METAR CYKZ 162200Z 13005KT 15SM SCT180 SCT240 02/M01 A2996 RMK AC3CI1 SLP154
Observed Flight Rules
Dec-16 @ 22:00 UTC
(12 minutes ago)
VFR
Wind Visibility
130° at 5 knots 15 miles
Clouds
  • Scattered at 18,000' AGL
  • Scattered at 24,000' AGL
Temperature Dewpoint
2°C / 36°F -1°C / 30°F
Humidity Altimeter Pressure
81% 29.96" Hg 1015.4 hPa